sensor_id;sensor_type;location;lat;lon;timestamp;P1;durP1;ratioP1;P2;durP2;ratioP2
18159;SDS011;9205;52.032;4.314;2022-08-19T00:02:26;6.47;;;3.53;;
18159;SDS011;9205;52.032;4.314;2022-08-19T00:04:53;5.50;;;3.03;;
18159;SDS011;9205;52.032;4.314;2022-08-19T00:07:21;4.80;;;3.33;;
18159;SDS011;9205;52.032;4.314;2022-08-19T00:09:48;6.10;;;3.20;;
18159;SDS011;9205;52.032;4.314;2022-08-19T00:12:15;4.97;;;3.10;;
18159;SDS011;9205;52.032;4.314;2022-08-19T00:14:43;6.03;;;3.53;;
18159;SDS011;9205;52.032;4.314;2022-08-19T00:17:13;6.53;;;3.40;;
18159;SDS011;9205;52.032;4.314;2022-08-19T00:19:42;4.20;;;3.00;;
18159;SDS011;9205;52.032;4.314;2022-08-19T00:22:09;5.83;;;3.80;;
18159;SDS011;9205;52.032;4.314;2022-08-19T00:24:36;5.17;;;2.93;;
18159;SDS011;9205;52.032;4.314;2022-08-19T00:27:06;4.93;;;3.20;;
18159;SDS011;9205;52.032;4.314;2022-08-19T00:29:33;5.70;;;3.30;;
18159;SDS011;9205;52.032;4.314;2022-08-19T00:32:01;4.47;;;3.13;;
18159;SDS011;9205;52.032;4.314;2022-08-19T00:34:29;5.23;;;3.50;;
18159;SDS011;9205;52.032;4.314;2022-08-19T00:36:58;4.57;;;3.33;;
18159;SDS011;9205;52.032;4.314;2022-08-19T00:39:26;4.97;;;3.33;;
18159;SDS011;9205;52.032;4.314;2022-08-19T00:41:53;5.03;;;3.40;;
18159;SDS011;9205;52.032;4.314;2022-08-19T00:44:22;7.43;;;3.50;;
18159;SDS011;9205;52.032;4.314;2022-08-19T00:46:53;5.50;;;4.00;;
18159;SDS011;9205;52.032;4.314;2022-08-19T00:49:25;6.43;;;3.70;;
18159;SDS011;9205;52.032;4.314;2022-08-19T00:52:00;5.47;;;3.77;;
18159;SDS011;9205;52.032;4.314;2022-08-19T00:54:33;4.60;;;3.30;;
18159;SDS011;9205;52.032;4.314;2022-08-19T00:57:05;4.87;;;3.63;;
18159;SDS011;9205;52.032;4.314;2022-08-19T00:59:39;8.40;;;4.27;;
18159;SDS011;9205;52.032;4.314;2022-08-19T01:02:08;5.23;;;3.30;;
18159;SDS011;9205;52.032;4.314;2022-08-19T01:04:35;6.40;;;3.83;;
18159;SDS011;9205;52.032;4.314;2022-08-19T01:07:04;6.40;;;4.37;;
18159;SDS011;9205;52.032;4.314;2022-08-19T01:09:32;7.30;;;3.80;;
18159;SDS011;9205;52.032;4.314;2022-08-19T01:12:00;7.23;;;4.20;;
18159;SDS011;9205;52.032;4.314;2022-08-19T01:14:29;7.10;;;4.47;;
18159;SDS011;9205;52.032;4.314;2022-08-19T01:16:57;6.43;;;4.47;;
18159;SDS011;9205;52.032;4.314;2022-08-19T01:19:26;11.90;;;5.40;;
18159;SDS011;9205;52.032;4.314;2022-08-19T01:22:01;7.37;;;5.33;;
18159;SDS011;9205;52.032;4.314;2022-08-19T01:24:38;8.03;;;5.27;;
18159;SDS011;9205;52.032;4.314;2022-08-19T01:27:07;7.67;;;4.87;;
18159;SDS011;9205;52.032;4.314;2022-08-19T01:29:36;9.33;;;5.67;;
18159;SDS011;9205;52.032;4.314;2022-08-19T01:32:08;9.50;;;5.93;;
18159;SDS011;9205;52.032;4.314;2022-08-19T01:34:40;9.10;;;5.70;;
18159;SDS011;9205;52.032;4.314;2022-08-19T01:37:13;10.23;;;5.73;;
18159;SDS011;9205;52.032;4.314;2022-08-19T01:39:46;13.33;;;6.50;;
18159;SDS011;9205;52.032;4.314;2022-08-19T01:42:16;12.33;;;6.27;;
18159;SDS011;9205;52.032;4.314;2022-08-19T01:44:44;12.73;;;6.77;;
18159;SDS011;9205;52.032;4.314;2022-08-19T01:47:12;12.00;;;6.47;;
18159;SDS011;9205;52.032;4.314;2022-08-19T01:49:39;11.77;;;7.00;;
18159;SDS011;9205;52.032;4.314;2022-08-19T01:52:06;11.23;;;7.13;;
18159;SDS011;9205;52.032;4.314;2022-08-19T01:54:51;15.00;;;7.87;;
18159;SDS011;9205;52.032;4.314;2022-08-19T01:57:19;15.77;;;8.33;;
18159;SDS011;9205;52.032;4.314;2022-08-19T01:59:47;21.63;;;10.43;;
18159;SDS011;9205;52.032;4.314;2022-08-19T02:02:15;15.47;;;8.93;;
18159;SDS011;9205;52.032;4.314;2022-08-19T02:04:42;17.37;;;9.27;;
18159;SDS011;9205;52.032;4.314;2022-08-19T02:07:10;20.70;;;9.80;;
18159;SDS011;9205;52.032;4.314;2022-08-19T02:09:38;15.03;;;9.20;;
18159;SDS011;9205;52.032;4.314;2022-08-19T02:12:08;21.13;;;9.97;;
18159;SDS011;9205;52.032;4.314;2022-08-19T02:14:44;19.30;;;10.00;;
18159;SDS011;9205;52.032;4.314;2022-08-19T02:17:12;17.10;;;8.90;;
18159;SDS011;9205;52.032;4.314;2022-08-19T02:19:40;21.40;;;10.43;;
18159;SDS011;9205;52.032;4.314;2022-08-19T02:22:07;19.67;;;10.13;;
18159;SDS011;9205;52.032;4.314;2022-08-19T02:24:35;20.03;;;9.83;;
18159;SDS011;9205;52.032;4.314;2022-08-19T02:27:08;21.63;;;9.93;;
18159;SDS011;9205;52.032;4.314;2022-08-19T02:29:35;22.80;;;10.07;;
18159;SDS011;9205;52.032;4.314;2022-08-19T02:32:02;21.67;;;11.03;;
18159;SDS011;9205;52.032;4.314;2022-08-19T02:34:30;19.87;;;10.63;;
18159;SDS011;9205;52.032;4.314;2022-08-19T02:36:57;24.13;;;10.17;;
18159;SDS011;9205;52.032;4.314;2022-08-19T02:39:25;19.97;;;10.67;;
18159;SDS011;9205;52.032;4.314;2022-08-19T02:41:51;22.90;;;10.40;;
18159;SDS011;9205;52.032;4.314;2022-08-19T02:44:20;18.80;;;10.10;;
18159;SDS011;9205;52.032;4.314;2022-08-19T02:46:47;20.77;;;10.23;;
18159;SDS011;9205;52.032;4.314;2022-08-19T02:49:17;19.30;;;9.63;;
18159;SDS011;9205;52.032;4.314;2022-08-19T02:51:45;22.90;;;10.90;;
18159;SDS011;9205;52.032;4.314;2022-08-19T02:54:13;19.33;;;9.13;;
18159;SDS011;9205;52.032;4.314;2022-08-19T02:56:42;21.03;;;10.80;;
18159;SDS011;9205;52.032;4.314;2022-08-19T02:59:10;19.07;;;10.23;;
18159;SDS011;9205;52.032;4.314;2022-08-19T03:01:40;22.33;;;10.20;;
18159;SDS011;9205;52.032;4.314;2022-08-19T03:04:11;21.67;;;10.07;;
18159;SDS011;9205;52.032;4.314;2022-08-19T03:06:44;22.90;;;11.17;;
18159;SDS011;9205;52.032;4.314;2022-08-19T03:09:16;22.63;;;11.10;;
18159;SDS011;9205;52.032;4.314;2022-08-19T03:11:49;24.00;;;10.80;;
18159;SDS011;9205;52.032;4.314;2022-08-19T03:14:16;19.73;;;9.87;;
18159;SDS011;9205;52.032;4.314;2022-08-19T03:16:46;22.53;;;9.97;;
18159;SDS011;9205;52.032;4.314;2022-08-19T03:19:17;21.60;;;11.00;;
18159;SDS011;9205;52.032;4.314;2022-08-19T03:21:48;22.13;;;10.47;;
18159;SDS011;9205;52.032;4.314;2022-08-19T03:24:17;18.87;;;9.53;;
18159;SDS011;9205;52.032;4.314;2022-08-19T03:26:49;20.37;;;10.20;;
18159;SDS011;9205;52.032;4.314;2022-08-19T03:29:24;19.67;;;9.80;;
18159;SDS011;9205;52.032;4.314;2022-08-19T03:31:54;24.07;;;9.90;;
18159;SDS011;9205;52.032;4.314;2022-08-19T03:34:22;24.17;;;11.17;;
18159;SDS011;9205;52.032;4.314;2022-08-19T03:36:52;20.23;;;10.07;;
18159;SDS011;9205;52.032;4.314;2022-08-19T03:39:21;22.97;;;11.40;;
18159;SDS011;9205;52.032;4.314;2022-08-19T03:41:52;21.50;;;10.70;;
18159;SDS011;9205;52.032;4.314;2022-08-19T03:44:22;22.17;;;11.60;;
18159;SDS011;9205;52.032;4.314;2022-08-19T03:46:50;23.30;;;11.33;;
18159;SDS011;9205;52.032;4.314;2022-08-19T03:49:22;28.23;;;11.73;;
18159;SDS011;9205;52.032;4.314;2022-08-19T03:51:53;23.67;;;11.03;;
18159;SDS011;9205;52.032;4.314;2022-08-19T03:54:23;30.20;;;12.03;;
18159;SDS011;9205;52.032;4.314;2022-08-19T03:56:52;22.43;;;11.63;;
18159;SDS011;9205;52.032;4.314;2022-08-19T03:59:22;23.70;;;11.10;;
18159;SDS011;9205;52.032;4.314;2022-08-19T04:01:58;30.30;;;12.53;;
18159;SDS011;9205;52.032;4.314;2022-08-19T04:04:29;24.93;;;12.07;;
18159;SDS011;9205;52.032;4.314;2022-08-19T04:06:57;28.67;;;12.33;;
18159;SDS011;9205;52.032;4.314;2022-08-19T04:09:24;29.17;;;12.03;;
18159;SDS011;9205;52.032;4.314;2022-08-19T04:11:53;29.47;;;12.63;;
18159;SDS011;9205;52.032;4.314;2022-08-19T04:14:24;33.13;;;12.47;;
18159;SDS011;9205;52.032;4.314;2022-08-19T04:16:55;28.87;;;13.37;;
18159;SDS011;9205;52.032;4.314;2022-08-19T04:19:23;27.73;;;12.30;;
18159;SDS011;9205;52.032;4.314;2022-08-19T04:21:53;30.80;;;13.27;;
18159;SDS011;9205;52.032;4.314;2022-08-19T04:24:21;28.33;;;12.40;;
18159;SDS011;9205;52.032;4.314;2022-08-19T04:26:49;30.80;;;13.53;;
18159;SDS011;9205;52.032;4.314;2022-08-19T04:29:17;31.47;;;13.20;;
18159;SDS011;9205;52.032;4.314;2022-08-19T04:31:50;28.90;;;12.30;;
18159;SDS011;9205;52.032;4.314;2022-08-19T04:34:20;27.73;;;12.33;;
18159;SDS011;9205;52.032;4.314;2022-08-19T04:36:50;30.63;;;12.67;;
18159;SDS011;9205;52.032;4.314;2022-08-19T04:39:22;31.83;;;12.37;;
18159;SDS011;9205;52.032;4.314;2022-08-19T04:42:13;27.30;;;12.57;;
18159;SDS011;9205;52.032;4.314;2022-08-19T04:44:59;27.60;;;11.90;;
18159;SDS011;9205;52.032;4.314;2022-08-19T04:47:28;24.73;;;11.63;;
18159;SDS011;9205;52.032;4.314;2022-08-19T04:49:57;24.90;;;11.87;;
18159;SDS011;9205;52.032;4.314;2022-08-19T04:52:26;26.13;;;12.20;;
18159;SDS011;9205;52.032;4.314;2022-08-19T04:54:53;25.73;;;11.10;;
18159;SDS011;9205;52.032;4.314;2022-08-19T04:57:21;23.57;;;11.33;;
18159;SDS011;9205;52.032;4.314;2022-08-19T04:59:48;26.90;;;12.23;;
18159;SDS011;9205;52.032;4.314;2022-08-19T05:02:20;28.93;;;11.60;;
18159;SDS011;9205;52.032;4.314;2022-08-19T05:04:48;27.13;;;11.80;;
18159;SDS011;9205;52.032;4.314;2022-08-19T05:07:15;27.00;;;11.53;;
18159;SDS011;9205;52.032;4.314;2022-08-19T05:09:44;22.87;;;11.00;;
18159;SDS011;9205;52.032;4.314;2022-08-19T05:12:11;21.80;;;10.77;;
18159;SDS011;9205;52.032;4.314;2022-08-19T05:14:38;24.43;;;11.40;;
18159;SDS011;9205;52.032;4.314;2022-08-19T05:17:05;26.83;;;11.50;;
18159;SDS011;9205;52.032;4.314;2022-08-19T05:19:32;25.37;;;11.27;;
18159;SDS011;9205;52.032;4.314;2022-08-19T05:22:17;23.20;;;10.40;;
18159;SDS011;9205;52.032;4.314;2022-08-19T05:25:04;28.63;;;11.20;;
18159;SDS011;9205;52.032;4.314;2022-08-19T05:27:37;26.10;;;11.13;;
18159;SDS011;9205;52.032;4.314;2022-08-19T05:30:05;24.87;;;10.63;;
18159;SDS011;9205;52.032;4.314;2022-08-19T05:32:33;23.13;;;11.40;;
18159;SDS011;9205;52.032;4.314;2022-08-19T05:35:01;23.13;;;10.97;;
18159;SDS011;9205;52.032;4.314;2022-08-19T05:37:29;23.70;;;10.83;;
18159;SDS011;9205;52.032;4.314;2022-08-19T05:39:56;21.87;;;10.30;;
18159;SDS011;9205;52.032;4.314;2022-08-19T05:42:25;23.13;;;10.67;;
18159;SDS011;9205;52.032;4.314;2022-08-19T05:44:52;25.67;;;11.63;;
18159;SDS011;9205;52.032;4.314;2022-08-19T05:47:37;25.17;;;10.80;;
18159;SDS011;9205;52.032;4.314;2022-08-19T05:50:04;24.00;;;11.23;;
18159;SDS011;9205;52.032;4.314;2022-08-19T05:52:32;20.77;;;10.20;;
18159;SDS011;9205;52.032;4.314;2022-08-19T05:55:03;22.50;;;9.93;;
18159;SDS011;9205;52.032;4.314;2022-08-19T05:57:36;20.00;;;10.10;;
18159;SDS011;9205;52.032;4.314;2022-08-19T06:00:03;18.40;;;9.13;;
18159;SDS011;9205;52.032;4.314;2022-08-19T06:02:37;22.77;;;10.63;;
18159;SDS011;9205;52.032;4.314;2022-08-19T06:05:05;20.73;;;10.00;;
18159;SDS011;9205;52.032;4.314;2022-08-19T06:07:35;22.13;;;10.07;;
18159;SDS011;9205;52.032;4.314;2022-08-19T06:10:04;17.63;;;9.60;;
18159;SDS011;9205;52.032;4.314;2022-08-19T06:12:36;18.07;;;8.47;;
18159;SDS011;9205;52.032;4.314;2022-08-19T06:15:05;22.37;;;10.17;;
18159;SDS011;9205;52.032;4.314;2022-08-19T06:17:35;18.33;;;9.80;;
18159;SDS011;9205;52.032;4.314;2022-08-19T06:20:03;18.40;;;9.67;;
18159;SDS011;9205;52.032;4.314;2022-08-19T06:22:37;18.17;;;8.10;;
18159;SDS011;9205;52.032;4.314;2022-08-19T06:25:05;17.87;;;9.60;;
18159;SDS011;9205;52.032;4.314;2022-08-19T06:27:35;19.53;;;8.93;;
18159;SDS011;9205;52.032;4.314;2022-08-19T06:30:04;17.93;;;9.43;;
18159;SDS011;9205;52.032;4.314;2022-08-19T06:32:32;21.90;;;8.97;;
18159;SDS011;9205;52.032;4.314;2022-08-19T06:34:59;15.80;;;8.47;;
18159;SDS011;9205;52.032;4.314;2022-08-19T06:37:27;19.80;;;9.33;;
18159;SDS011;9205;52.032;4.314;2022-08-19T06:39:54;19.40;;;8.70;;
18159;SDS011;9205;52.032;4.314;2022-08-19T06:42:21;18.50;;;8.70;;
18159;SDS011;9205;52.032;4.314;2022-08-19T06:45:11;18.57;;;9.03;;
18159;SDS011;9205;52.032;4.314;2022-08-19T06:50:36;15.10;;;9.00;;
18159;SDS011;9205;52.032;4.314;2022-08-19T06:53:03;17.03;;;8.97;;
18159;SDS011;9205;52.032;4.314;2022-08-19T06:55:30;17.50;;;9.13;;
18159;SDS011;9205;52.032;4.314;2022-08-19T06:58:02;14.03;;;7.60;;
18159;SDS011;9205;52.032;4.314;2022-08-19T07:00:30;17.67;;;7.87;;
18159;SDS011;9205;52.032;4.314;2022-08-19T07:02:58;14.87;;;8.33;;
18159;SDS011;9205;52.032;4.314;2022-08-19T07:05:26;17.70;;;9.27;;
18159;SDS011;9205;52.032;4.314;2022-08-19T07:07:54;17.07;;;8.20;;
18159;SDS011;9205;52.032;4.314;2022-08-19T07:10:21;15.43;;;7.77;;
18159;SDS011;9205;52.032;4.314;2022-08-19T07:12:48;15.63;;;8.17;;
18159;SDS011;9205;52.032;4.314;2022-08-19T07:15:18;18.87;;;8.17;;
18159;SDS011;9205;52.032;4.314;2022-08-19T07:17:46;18.37;;;8.03;;
18159;SDS011;9205;52.032;4.314;2022-08-19T07:20:13;17.27;;;8.00;;
18159;SDS011;9205;52.032;4.314;2022-08-19T07:22:40;19.77;;;7.70;;
18159;SDS011;9205;52.032;4.314;2022-08-19T07:25:08;15.07;;;8.13;;
18159;SDS011;9205;52.032;4.314;2022-08-19T07:27:38;14.20;;;7.10;;
18159;SDS011;9205;52.032;4.314;2022-08-19T07:30:06;15.47;;;7.70;;
18159;SDS011;9205;52.032;4.314;2022-08-19T07:32:40;8.73;;;5.83;;
18159;SDS011;9205;52.032;4.314;2022-08-19T07:35:10;13.70;;;6.60;;
18159;SDS011;9205;52.032;4.314;2022-08-19T07:37:40;13.83;;;6.17;;
18159;SDS011;9205;52.032;4.314;2022-08-19T07:40:09;11.03;;;5.60;;
18159;SDS011;9205;52.032;4.314;2022-08-19T07:42:38;9.10;;;4.00;;
18159;SDS011;9205;52.032;4.314;2022-08-19T07:45:06;9.03;;;3.43;;
18159;SDS011;9205;52.032;4.314;2022-08-19T07:47:35;8.77;;;3.50;;
18159;SDS011;9205;52.032;4.314;2022-08-19T07:50:06;6.20;;;3.20;;
18159;SDS011;9205;52.032;4.314;2022-08-19T07:52:37;5.90;;;3.70;;
18159;SDS011;9205;52.032;4.314;2022-08-19T07:55:06;7.87;;;3.40;;
18159;SDS011;9205;52.032;4.314;2022-08-19T07:57:35;5.67;;;3.00;;
18159;SDS011;9205;52.032;4.314;2022-08-19T08:00:04;4.63;;;3.43;;
18159;SDS011;9205;52.032;4.314;2022-08-19T08:02:37;4.13;;;2.83;;
18159;SDS011;9205;52.032;4.314;2022-08-19T08:05:09;5.93;;;3.30;;
18159;SDS011;9205;52.032;4.314;2022-08-19T08:07:54;9.03;;;3.10;;
18159;SDS011;9205;52.032;4.314;2022-08-19T08:10:39;5.73;;;3.10;;
18159;SDS011;9205;52.032;4.314;2022-08-19T08:13:06;5.63;;;3.43;;
18159;SDS011;9205;52.032;4.314;2022-08-19T08:15:34;4.80;;;2.83;;
18159;SDS011;9205;52.032;4.314;2022-08-19T08:18:03;5.73;;;2.87;;
18159;SDS011;9205;52.032;4.314;2022-08-19T08:20:32;3.10;;;2.50;;
18159;SDS011;9205;52.032;4.314;2022-08-19T08:23:00;4.40;;;2.50;;
18159;SDS011;9205;52.032;4.314;2022-08-19T08:25:44;4.57;;;2.70;;
18159;SDS011;9205;52.032;4.314;2022-08-19T08:28:13;5.30;;;3.60;;
18159;SDS011;9205;52.032;4.314;2022-08-19T08:30:41;3.70;;;2.60;;
18159;SDS011;9205;52.032;4.314;2022-08-19T08:33:09;6.90;;;2.83;;
18159;SDS011;9205;52.032;4.314;2022-08-19T08:35:38;4.57;;;2.87;;
18159;SDS011;9205;52.032;4.314;2022-08-19T08:38:07;6.23;;;2.90;;
18159;SDS011;9205;52.032;4.314;2022-08-19T08:40:39;3.90;;;2.83;;
18159;SDS011;9205;52.032;4.314;2022-08-19T08:43:19;4.63;;;2.50;;
18159;SDS011;9205;52.032;4.314;2022-08-19T08:45:55;4.77;;;2.60;;
18159;SDS011;9205;52.032;4.314;2022-08-19T08:48:35;4.87;;;2.70;;
18159;SDS011;9205;52.032;4.314;2022-08-19T08:51:14;5.33;;;2.50;;
18159;SDS011;9205;52.032;4.314;2022-08-19T08:53:49;3.37;;;2.40;;
18159;SDS011;9205;52.032;4.314;2022-08-19T08:56:19;5.38;;;2.40;;
18159;SDS011;9205;52.032;4.314;2022-08-19T08:58:49;4.07;;;2.50;;
18159;SDS011;9205;52.032;4.314;2022-08-19T09:01:25;3.42;;;2.10;;
18159;SDS011;9205;52.032;4.314;2022-08-19T09:03:55;5.17;;;1.90;;
18159;SDS011;9205;52.032;4.314;2022-08-19T09:06:25;3.65;;;1.95;;
18159;SDS011;9205;52.032;4.314;2022-08-19T09:09:05;2.15;;;1.92;;
18159;SDS011;9205;52.032;4.314;2022-08-19T09:11:55;3.40;;;1.90;;
18159;SDS011;9205;52.032;4.314;2022-08-19T09:14:33;3.63;;;1.80;;
18159;SDS011;9205;52.032;4.314;2022-08-19T09:17:07;4.53;;;2.30;;
18159;SDS011;9205;52.032;4.314;2022-08-19T09:19:35;4.77;;;1.93;;
18159;SDS011;9205;52.032;4.314;2022-08-19T09:22:18;4.17;;;2.00;;
18159;SDS011;9205;52.032;4.314;2022-08-19T09:24:49;4.97;;;1.75;;
18159;SDS011;9205;52.032;4.314;2022-08-19T09:27:19;3.50;;;1.88;;
18159;SDS011;9205;52.032;4.314;2022-08-19T09:29:49;2.63;;;1.77;;
18159;SDS011;9205;52.032;4.314;2022-08-19T09:32:16;2.97;;;1.65;;
18159;SDS011;9205;52.032;4.314;2022-08-19T09:34:44;3.03;;;1.63;;
18159;SDS011;9205;52.032;4.314;2022-08-19T09:37:11;3.42;;;1.83;;
18159;SDS011;9205;52.032;4.314;2022-08-19T09:39:41;3.25;;;1.75;;
18159;SDS011;9205;52.032;4.314;2022-08-19T09:42:09;2.17;;;1.70;;
18159;SDS011;9205;52.032;4.314;2022-08-19T09:44:39;2.15;;;1.60;;
18159;SDS011;9205;52.032;4.314;2022-08-19T09:47:07;2.10;;;1.58;;
18159;SDS011;9205;52.032;4.314;2022-08-19T09:49:36;2.45;;;1.70;;
18159;SDS011;9205;52.032;4.314;2022-08-19T09:52:04;5.03;;;1.92;;
18159;SDS011;9205;52.032;4.314;2022-08-19T09:54:33;3.13;;;1.90;;
18159;SDS011;9205;52.032;4.314;2022-08-19T09:57:02;4.05;;;1.77;;
18159;SDS011;9205;52.032;4.314;2022-08-19T09:59:29;3.60;;;1.75;;
18159;SDS011;9205;52.032;4.314;2022-08-19T10:01:57;3.28;;;1.67;;
18159;SDS011;9205;52.032;4.314;2022-08-19T10:04:24;1.85;;;1.30;;
18159;SDS011;9205;52.032;4.314;2022-08-19T10:07:12;1.88;;;1.50;;
18159;SDS011;9205;52.032;4.314;2022-08-19T10:09:39;2.80;;;1.52;;
18159;SDS011;9205;52.032;4.314;2022-08-19T10:12:08;1.65;;;1.40;;
18159;SDS011;9205;52.032;4.314;2022-08-19T10:14:36;2.70;;;1.58;;
18159;SDS011;9205;52.032;4.314;2022-08-19T10:17:04;1.65;;;1.10;;
18159;SDS011;9205;52.032;4.314;2022-08-19T10:19:31;3.20;;;1.40;;
18159;SDS011;9205;52.032;4.314;2022-08-19T10:22:04;1.70;;;1.20;;
18159;SDS011;9205;52.032;4.314;2022-08-19T10:24:33;2.33;;;1.42;;
18159;SDS011;9205;52.032;4.314;2022-08-19T10:27:01;3.20;;;1.45;;
18159;SDS011;9205;52.032;4.314;2022-08-19T10:29:30;2.58;;;1.15;;
18159;SDS011;9205;52.032;4.314;2022-08-19T10:31:59;1.45;;;1.10;;
18159;SDS011;9205;52.032;4.314;2022-08-19T10:34:28;3.22;;;1.40;;
18159;SDS011;9205;52.032;4.314;2022-08-19T10:36:57;1.60;;;1.10;;
18159;SDS011;9205;52.032;4.314;2022-08-19T10:39:25;1.53;;;1.27;;
18159;SDS011;9205;52.032;4.314;2022-08-19T10:41:55;1.15;;;1.02;;
18159;SDS011;9205;52.032;4.314;2022-08-19T10:44:24;3.50;;;1.50;;
18159;SDS011;9205;52.032;4.314;2022-08-19T10:46:56;2.05;;;1.35;;
18159;SDS011;9205;52.032;4.314;2022-08-19T10:49:24;1.95;;;1.17;;
18159;SDS011;9205;52.032;4.314;2022-08-19T10:51:51;1.90;;;1.20;;
18159;SDS011;9205;52.032;4.314;2022-08-19T10:54:35;1.40;;;1.15;;
18159;SDS011;9205;52.032;4.314;2022-08-19T10:57:20;3.65;;;1.38;;
18159;SDS011;9205;52.032;4.314;2022-08-19T10:59:54;2.67;;;1.60;;
18159;SDS011;9205;52.032;4.314;2022-08-19T11:02:23;1.38;;;1.20;;
18159;SDS011;9205;52.032;4.314;2022-08-19T11:04:51;1.27;;;1.15;;
18159;SDS011;9205;52.032;4.314;2022-08-19T11:07:18;2.45;;;1.20;;
18159;SDS011;9205;52.032;4.314;2022-08-19T11:09:46;2.47;;;1.15;;
18159;SDS011;9205;52.032;4.314;2022-08-19T11:12:13;1.73;;;1.20;;
18159;SDS011;9205;52.032;4.314;2022-08-19T11:14:42;2.65;;;1.13;;
18159;SDS011;9205;52.032;4.314;2022-08-19T11:17:09;3.55;;;1.65;;
18159;SDS011;9205;52.032;4.314;2022-08-19T11:19:40;2.23;;;1.47;;
18159;SDS011;9205;52.032;4.314;2022-08-19T11:22:08;2.60;;;1.42;;
18159;SDS011;9205;52.032;4.314;2022-08-19T11:24:37;4.10;;;1.63;;
18159;SDS011;9205;52.032;4.314;2022-08-19T11:27:06;1.98;;;1.30;;
18159;SDS011;9205;52.032;4.314;2022-08-19T11:29:35;2.17;;;1.40;;
18159;SDS011;9205;52.032;4.314;2022-08-19T11:32:05;1.85;;;1.40;;
18159;SDS011;9205;52.032;4.314;2022-08-19T11:34:36;3.30;;;1.40;;
18159;SDS011;9205;52.032;4.314;2022-08-19T11:37:05;1.67;;;1.47;;
18159;SDS011;9205;52.032;4.314;2022-08-19T11:39:34;1.65;;;1.20;;
18159;SDS011;9205;52.032;4.314;2022-08-19T11:42:04;2.55;;;1.60;;
18159;SDS011;9205;52.032;4.314;2022-08-19T11:44:47;2.08;;;1.67;;
18159;SDS011;9205;52.032;4.314;2022-08-19T11:47:15;3.70;;;1.63;;
18159;SDS011;9205;52.032;4.314;2022-08-19T11:49:42;1.73;;;1.60;;
18159;SDS011;9205;52.032;4.314;2022-08-19T11:52:11;2.92;;;1.70;;
18159;SDS011;9205;52.032;4.314;2022-08-19T11:54:38;4.20;;;1.55;;
18159;SDS011;9205;52.032;4.314;2022-08-19T11:57:08;2.10;;;1.38;;
18159;SDS011;9205;52.032;4.314;2022-08-19T11:59:35;1.90;;;1.30;;
18159;SDS011;9205;52.032;4.314;2022-08-19T12:02:02;2.38;;;1.52;;
18159;SDS011;9205;52.032;4.314;2022-08-19T12:04:30;3.33;;;1.40;;
18159;SDS011;9205;52.032;4.314;2022-08-19T12:06:57;1.90;;;1.38;;
18159;SDS011;9205;52.032;4.314;2022-08-19T12:09:25;1.67;;;1.30;;
18159;SDS011;9205;52.032;4.314;2022-08-19T12:11:53;1.80;;;1.30;;
18159;SDS011;9205;52.032;4.314;2022-08-19T12:14:21;1.98;;;1.48;;
18159;SDS011;9205;52.032;4.314;2022-08-19T12:16:49;1.90;;;1.50;;
18159;SDS011;9205;52.032;4.314;2022-08-19T12:19:16;1.65;;;1.38;;
18159;SDS011;9205;52.032;4.314;2022-08-19T12:21:44;1.33;;;1.23;;
18159;SDS011;9205;52.032;4.314;2022-08-19T12:24:11;2.85;;;1.60;;
18159;SDS011;9205;52.032;4.314;2022-08-19T12:26:40;2.17;;;1.20;;
18159;SDS011;9205;52.032;4.314;2022-08-19T12:29:08;1.73;;;1.60;;
18159;SDS011;9205;52.032;4.314;2022-08-19T12:31:35;1.52;;;1.30;;
18159;SDS011;9205;52.032;4.314;2022-08-19T12:34:02;1.60;;;1.27;;
18159;SDS011;9205;52.032;4.314;2022-08-19T12:36:29;3.03;;;1.58;;
18159;SDS011;9205;52.032;4.314;2022-08-19T12:38:57;3.28;;;1.63;;
18159;SDS011;9205;52.032;4.314;2022-08-19T12:41:25;2.42;;;1.33;;
18159;SDS011;9205;52.032;4.314;2022-08-19T12:44:00;2.88;;;1.42;;
18159;SDS011;9205;52.032;4.314;2022-08-19T12:46:28;2.15;;;1.50;;
18159;SDS011;9205;52.032;4.314;2022-08-19T12:48:56;2.22;;;1.40;;
18159;SDS011;9205;52.032;4.314;2022-08-19T12:51:23;2.17;;;1.30;;
18159;SDS011;9205;52.032;4.314;2022-08-19T12:53:52;1.33;;;1.20;;
18159;SDS011;9205;52.032;4.314;2022-08-19T12:56:20;2.05;;;1.50;;
18159;SDS011;9205;52.032;4.314;2022-08-19T12:58:47;2.30;;;1.33;;
18159;SDS011;9205;52.032;4.314;2022-08-19T13:01:16;1.80;;;1.38;;
18159;SDS011;9205;52.032;4.314;2022-08-19T13:03:45;3.75;;;1.40;;
18159;SDS011;9205;52.032;4.314;2022-08-19T13:06:13;2.42;;;1.40;;
18159;SDS011;9205;52.032;4.314;2022-08-19T13:08:41;2.42;;;1.20;;
18159;SDS011;9205;52.032;4.314;2022-08-19T13:11:09;1.35;;;1.10;;
18159;SDS011;9205;52.032;4.314;2022-08-19T13:13:40;2.17;;;1.45;;
18159;SDS011;9205;52.032;4.314;2022-08-19T13:16:09;1.20;;;1.10;;
18159;SDS011;9205;52.032;4.314;2022-08-19T13:18:40;1.75;;;1.40;;
18159;SDS011;9205;52.032;4.314;2022-08-19T13:21:11;1.92;;;1.30;;
18159;SDS011;9205;52.032;4.314;2022-08-19T13:23:39;1.60;;;1.20;;
18159;SDS011;9205;52.032;4.314;2022-08-19T13:26:07;1.88;;;1.30;;
18159;SDS011;9205;52.032;4.314;2022-08-19T13:28:38;2.00;;;1.13;;
18159;SDS011;9205;52.032;4.314;2022-08-19T13:31:26;1.55;;;1.00;;
18159;SDS011;9205;52.032;4.314;2022-08-19T13:34:15;1.15;;;1.02;;
18159;SDS011;9205;52.032;4.314;2022-08-19T13:36:44;1.25;;;1.15;;
18159;SDS011;9205;52.032;4.314;2022-08-19T13:39:11;1.10;;;1.00;;
18159;SDS011;9205;52.032;4.314;2022-08-19T13:41:42;2.20;;;1.38;;
18159;SDS011;9205;52.032;4.314;2022-08-19T13:44:13;1.33;;;1.20;;
18159;SDS011;9205;52.032;4.314;2022-08-19T13:46:43;1.65;;;1.30;;
18159;SDS011;9205;52.032;4.314;2022-08-19T13:49:10;1.65;;;1.30;;
18159;SDS011;9205;52.032;4.314;2022-08-19T13:51:41;2.17;;;1.33;;
18159;SDS011;9205;52.032;4.314;2022-08-19T13:54:10;2.35;;;1.23;;
18159;SDS011;9205;52.032;4.314;2022-08-19T13:56:40;2.10;;;1.20;;
18159;SDS011;9205;52.032;4.314;2022-08-19T13:59:09;3.05;;;1.30;;
18159;SDS011;9205;52.032;4.314;2022-08-19T14:01:37;1.73;;;1.25;;
18159;SDS011;9205;52.032;4.314;2022-08-19T14:04:05;2.40;;;1.40;;
18159;SDS011;9205;52.032;4.314;2022-08-19T14:06:33;1.45;;;1.30;;
18159;SDS011;9205;52.032;4.314;2022-08-19T14:09:02;3.22;;;1.38;;
18159;SDS011;9205;52.032;4.314;2022-08-19T14:11:30;1.70;;;1.38;;
18159;SDS011;9205;52.032;4.314;2022-08-19T14:13:57;2.60;;;1.38;;
18159;SDS011;9205;52.032;4.314;2022-08-19T14:16:25;2.80;;;1.30;;
18159;SDS011;9205;52.032;4.314;2022-08-19T14:18:52;1.15;;;1.00;;
18159;SDS011;9205;52.032;4.314;2022-08-19T14:21:32;1.35;;;1.25;;
18159;SDS011;9205;52.032;4.314;2022-08-19T14:24:24;2.47;;;1.10;;
18159;SDS011;9205;52.032;4.314;2022-08-19T14:26:51;3.13;;;1.50;;
18159;SDS011;9205;52.032;4.314;2022-08-19T14:29:19;1.42;;;1.33;;
18159;SDS011;9205;52.032;4.314;2022-08-19T14:31:47;1.90;;;1.20;;
18159;SDS011;9205;52.032;4.314;2022-08-19T14:34:14;1.25;;;1.15;;
18159;SDS011;9205;52.032;4.314;2022-08-19T14:36:43;1.63;;;1.20;;
18159;SDS011;9205;52.032;4.314;2022-08-19T14:39:10;2.65;;;1.30;;
18159;SDS011;9205;52.032;4.314;2022-08-19T14:41:39;1.63;;;1.20;;
18159;SDS011;9205;52.032;4.314;2022-08-19T14:44:08;2.00;;;1.30;;
18159;SDS011;9205;52.032;4.314;2022-08-19T14:46:38;1.77;;;1.30;;
18159;SDS011;9205;52.032;4.314;2022-08-19T14:49:06;1.67;;;1.35;;
18159;SDS011;9205;52.032;4.314;2022-08-19T14:51:33;2.15;;;1.20;;
18159;SDS011;9205;52.032;4.314;2022-08-19T14:54:01;1.48;;;1.20;;
18159;SDS011;9205;52.032;4.314;2022-08-19T14:56:29;2.28;;;1.30;;
18159;SDS011;9205;52.032;4.314;2022-08-19T14:58:58;2.10;;;1.20;;
18159;SDS011;9205;52.032;4.314;2022-08-19T15:01:26;1.17;;;0.90;;
18159;SDS011;9205;52.032;4.314;2022-08-19T15:03:57;2.38;;;1.23;;
18159;SDS011;9205;52.032;4.314;2022-08-19T15:06:25;1.00;;;0.90;;
18159;SDS011;9205;52.032;4.314;2022-08-19T15:08:54;1.08;;;0.98;;
18159;SDS011;9205;52.032;4.314;2022-08-19T15:11:25;1.90;;;0.90;;
18159;SDS011;9205;52.032;4.314;2022-08-19T15:13:54;0.88;;;0.80;;